M I D A S
Marine Information and Data Acquisition System
Tripno 765 of the Zeeleeuw from 2004-08-23 06:31:38 to 2004-08-23 10:44:42
Back to CruiseResearch ActivitiesStationsMapUnderway DataData graphs

EquipmentUnitsComment
TimeDGPSUTC
LatitudeDGPSDM.mWGS84
LongitudeDGPSDM.mWGS84
HeadingGyrodeg 
SOGDGPSknotsSpeed over ground
COGDGPSdegCourse over ground
DepthEcho soundermeters200 kHz
Missing or incorrect values are displayed as -999
Navigation data collected by the RV Zeeleeuw from 2004-08-23 06:31:38 to 2004-08-23 10:44:42
Time Latitude Longitude Heading SOG COG Depth
2004-08-23 06:32:45 51°13.595 2°56.104 111.7 1.7 290 10.1
2004-08-23 06:33:52 51°13.617 2°56.016 115.6 4 292 -999
2004-08-23 06:34:52 51°13.649 2°55.908 116.8 4.5 295 -999
2004-08-23 06:35:52 51°13.668 2°55.805 95.3 3.7 277 -999
2004-08-23 06:36:49 51°13.674 2°55.769 54.3 1.6 30 13.5
2004-08-23 06:37:59 51°13.739 2°55.727 313.5 5.6 309 11.4
2004-08-23 06:39:01 51°13.846 2°55.607 340.7 8.6 337 12.6
2004-08-23 06:40:07 51°13.999 2°55.503 340.8 9.3 336 13.6
2004-08-23 06:41:13 51°14.153 2°55.389 336.7 9.4 332 12.9
2004-08-23 06:42:29 51°14.32 2°55.147 315.7 12.1 310 12.9
2004-08-23 06:43:29 51°14.447 2°54.881 299.4 12.7 293 12.5
2004-08-23 06:44:30 51°14.462 2°54.547 267.8 12.6 263 12.5
2004-08-23 06:45:34 51°14.403 2°54.197 252.3 12.9 248 11.4
2004-08-23 06:46:34 51°14.309 2°53.888 243.9 12.9 242 11.3
2004-08-23 06:47:38 51°14.2 2°53.565 244.6 13 242 11.5
2004-08-23 06:48:37 51°14.094 2°53.269 241.9 13.2 239 11.7
2004-08-23 06:49:37 51°13.986 2°52.969 243 13.1 240 12
2004-08-23 06:50:46 51°13.864 2°52.622 243.3 13 242 12.3
2004-08-23 06:51:45 51°13.758 2°52.328 243.4 13 240 12.3
2004-08-23 06:52:45 51°13.649 2°52.031 242.7 13.1 240 12.4
2004-08-23 06:53:53 51°13.526 2°51.695 242.4 13 239 12.4
2004-08-23 06:54:53 51°13.417 2°51.398 243.8 12.9 241 12.7
2004-08-23 06:56:06 51°13.286 2°51.036 243.3 12.9 240 12.8
2004-08-23 06:57:17 51°13.159 2°50.684 243.8 12.9 240 12.9
2004-08-23 06:58:22 51°13.042 2°50.363 242.9 13 239 13
2004-08-23 06:59:22 51°12.933 2°50.065 244.1 13 241 13.2
2004-08-23 07:00:25 51°12.819 2°49.752 243.1 13 240 13.2
2004-08-23 07:01:25 51°12.711 2°49.455 243.1 13 238 13.3
2004-08-23 07:02:25 51°12.602 2°49.157 243.4 12.9 240 13.3
2004-08-23 07:03:25 51°12.493 2°48.858 242.7 13.1 240 13.2
2004-08-23 07:04:30 51°12.377 2°48.533 243.4 13 240 13.5
2004-08-23 07:05:30 51°12.268 2°48.234 244.2 12.9 241 13.3
2004-08-23 07:06:32 51°12.155 2°47.925 243.2 13.1 240 13.4
2004-08-23 07:07:31 51°12.046 2°47.631 243.1 12.9 240 13.3
2004-08-23 07:08:38 51°11.926 2°47.295 242.5 13.3 241 13.2
2004-08-23 07:09:37 51°11.818 2°47 242.5 13.1 240 12.9
2004-08-23 07:10:42 51°11.703 2°46.672 244 13 240 12.8
2004-08-23 07:11:42 51°11.596 2°46.368 243.3 13.2 240 12.7
2004-08-23 07:12:42 51°11.489 2°46.063 243.2 13.1 240 12.5
2004-08-23 07:13:42 51°11.402 2°45.742 254.8 13.3 253 12.4
2004-08-23 07:14:41 51°11.34 2°45.41 256.3 13.1 255 12.6
2004-08-23 07:15:42 51°11.279 2°45.063 256.9 13.4 255 12.7
2004-08-23 07:16:49 51°11.208 2°44.682 255.4 13.4 253 12.8
2004-08-23 07:17:51 51°11.145 2°44.328 257.2 13.4 255 12.9
2004-08-23 07:18:50 51°11.091 2°43.987 257.4 13.5 255 13.1
2004-08-23 07:19:50 51°11.035 2°43.641 257.7 13.5 257 13.3
2004-08-23 07:20:58 51°10.972 2°43.249 256.9 13.5 255 13.4
2004-08-23 07:22:01 51°10.914 2°42.887 257.4 13.5 256 13.4
2004-08-23 07:23:05 51°10.856 2°42.518 258 13.5 257 13.5
2004-08-23 07:24:10 51°10.797 2°42.142 257.3 13.5 255 13.5
2004-08-23 07:25:14 51°10.74 2°41.771 256.8 13.6 257 13.7
2004-08-23 07:26:14 51°10.685 2°41.424 257.4 13.6 256 13.7
2004-08-23 07:27:14 51°10.632 2°41.076 257.1 13.5 257 13.6
2004-08-23 07:28:15 51°10.579 2°40.721 257.4 13.5 257 13.8
2004-08-23 07:29:15 51°10.528 2°40.371 257.1 13.5 255 14.3
2004-08-23 07:30:19 51°10.47 2°40.001 257.1 13.4 257 14.9
2004-08-23 07:31:18 51°10.418 2°39.66 257.4 13.5 256 15.3
2004-08-23 07:32:18 51°10.365 2°39.313 257.1 13.5 256 15.8
2004-08-23 07:33:18 51°10.313 2°38.965 257.3 13.5 257 16.4
2004-08-23 07:34:19 51°10.263 2°38.612 256.8 13.4 256 17.3
2004-08-23 07:35:22 51°10.21 2°38.25 257.3 13.5 257 17.5
2004-08-23 07:36:22 51°10.16 2°37.903 256.9 13.4 256 17.5
2004-08-23 07:37:22 51°10.106 2°37.554 257.3 13.6 256 18.6
2004-08-23 07:38:22 51°10.055 2°37.204 257.5 13.6 257 18.6
2004-08-23 07:39:23 51°10.009 2°36.843 265.5 13.7 266 19
2004-08-23 07:40:21 51°10.006 2°36.492 270.1 13.7 269 18.7
2004-08-23 07:41:22 51°10.018 2°36.125 276.2 13.6 276 18.8
2004-08-23 07:42:21 51°10.042 2°35.773 276.7 13.6 276 16.9
2004-08-23 07:43:23 51°10.145 2°35.461 324.4 13.4 328 11.9
2004-08-23 07:44:23 51°10.362 2°35.48 23.9 13.7 21 12.2
2004-08-23 07:45:23 51°10.568 2°35.643 31.6 13.8 27 11.2
2004-08-23 07:46:28 51°10.786 2°35.84 34.4 13.9 30 11.3
2004-08-23 07:47:28 51°10.987 2°36.019 33.7 13.8 29 11.7
2004-08-23 07:48:45 51°11.246 2°36.243 33.3 13.9 28 11.7
2004-08-23 07:49:46 51°11.448 2°36.429 36.9 13.8 32 11.6
2004-08-23 07:50:47 51°11.647 2°36.623 36.6 13.8 31 11.4
2004-08-23 07:51:47 51°11.841 2°36.818 39.1 13.7 33 11.2
2004-08-23 07:52:47 51°12.029 2°37.024 40.7 13.7 35 11.5
2004-08-23 07:53:47 51°12.216 2°37.236 40.9 13.8 35 11.8
2004-08-23 07:54:45 51°12.398 2°37.438 41 13.8 35 12.3
2004-08-23 07:55:46 51°12.59 2°37.65 40.5 13.8 35 12.8
2004-08-23 07:56:46 51°12.78 2°37.856 40.4 13.8 35 13.4
2004-08-23 07:57:45 51°12.966 2°38.058 39.9 13.8 34 14.2
2004-08-23 07:58:46 51°13.16 2°38.265 39.5 13.8 34 14.7
2004-08-23 07:59:46 51°13.35 2°38.469 39.6 13.7 33 15
2004-08-23 08:00:46 51°13.54 2°38.672 40 13.8 34 15.3
2004-08-23 08:01:47 51°13.753 2°38.802 12.2 13.8 4 14.8
2004-08-23 08:02:46 51°13.98 2°38.765 353.3 14 346 12.4
2004-08-23 08:03:47 51°14.178 2°38.578 317 13.8 309 16.7
2004-08-23 08:04:54 51°14.185 2°38.195 258.9 13.7 255 18.9
2004-08-23 08:05:57 51°14.116 2°37.827 250.4 13.9 246 20.1
2004-08-23 08:06:57 51°14.012 2°37.501 243.9 14 243 20.9
2004-08-23 08:07:58 51°13.903 2°37.17 244.8 14.1 242 21.2
2004-08-23 08:08:58 51°13.799 2°36.84 245.6 13.8 243 21
2004-08-23 08:09:58 51°13.694 2°36.512 244.9 13.9 242 19.4
2004-08-23 08:11:01 51°13.59 2°36.162 249.6 13.9 247 19.5
2004-08-23 08:12:06 51°13.491 2°35.799 249.1 13.8 247 17.6
2004-08-23 08:13:09 51°13.394 2°35.447 247.5 13.8 245 17.3
2004-08-23 08:14:09 51°13.295 2°35.118 246.8 13.6 245 17.1
2004-08-23 08:15:09 51°13.195 2°34.79 247 13.6 244 17.8
2004-08-23 08:16:06 51°13.104 2°34.474 248.3 13.9 245 17.3
2004-08-23 08:17:08 51°12.999 2°34.137 243.8 13.7 242 16.4
2004-08-23 08:18:09 51°12.892 2°33.811 244.5 13.5 242 15.3
2004-08-23 08:19:13 51°12.78 2°33.467 244.5 13.7 243 15.9
2004-08-23 08:20:28 51°12.649 2°33.064 244.5 13.7 241 15.5
2004-08-23 08:21:32 51°12.54 2°32.717 246.5 13.7 244 17.2
2004-08-23 08:22:33 51°12.434 2°32.385 245.7 13.9 244 18
2004-08-23 08:23:33 51°12.329 2°32.061 245.1 13.7 242 20
2004-08-23 08:24:33 51°12.234 2°31.731 246.7 13.7 244 21.5
2004-08-23 08:25:34 51°12.133 2°31.393 247.5 13.8 246 22.1
2004-08-23 08:26:34 51°12.036 2°31.058 247.3 13.8 245 22.5
2004-08-23 08:27:38 51°11.927 2°30.702 246.9 14 245 22.8
2004-08-23 08:28:44 51°11.817 2°30.332 245.8 14.1 243 22.6
2004-08-23 08:29:47 51°11.713 2°29.976 248 14.1 245 23.1
2004-08-23 08:30:53 51°11.604 2°29.605 246.9 14.2 245 23.3
2004-08-23 08:31:53 51°11.506 2°29.264 246.8 14.2 246 23.8
2004-08-23 08:32:52 51°11.408 2°28.93 246 14.2 244 23.3
2004-08-23 08:33:53 51°11.307 2°28.585 246.4 14.1 245 22.8
2004-08-23 08:34:59 51°11.204 2°28.206 251.1 14.3 252 21.1
2004-08-23 08:35:59 51°11.15 2°27.838 259.8 14.2 259 21
2004-08-23 08:36:59 51°11.137 2°27.46 271.5 14.3 269 23.6
2004-08-23 08:37:57 51°11.129 2°27.093 270 14.3 267 23
2004-08-23 08:39:02 51°11.116 2°26.684 270 14.3 268 21.4
2004-08-23 08:40:03 51°11.104 2°26.3 269.3 14.2 267 18
2004-08-23 08:41:02 51°11.094 2°25.927 269.6 14.4 268 15.3
2004-08-23 08:42:03 51°11.085 2°25.541 269.1 14.2 268 12.4
2004-08-23 08:43:09 51°11.149 2°25.143 304.8 14.2 303 23.8
2004-08-23 08:44:09 51°11.343 2°24.994 8.4 13.4 6 22.9
2004-08-23 08:45:10 51°11.534 2°25.178 49.4 13.5 44 25.6
2004-08-23 08:46:10 51°11.693 2°25.435 50.8 13.6 45 25.5
2004-08-23 08:47:10 51°11.85 2°25.692 51.3 13.6 46 24.4
2004-08-23 08:48:09 51°12.004 2°25.946 51.2 13.6 46 24.4
2004-08-23 08:49:10 51°12.165 2°26.208 50.8 13.5 45 24.9
2004-08-23 08:50:10 51°12.336 2°26.441 45 13.5 40 24.5
2004-08-23 08:51:16 51°12.524 2°26.695 46.4 13.5 41 25.2
2004-08-23 08:52:14 51°12.69 2°26.917 46.4 13.4 40 24.8
2004-08-23 08:53:15 51°12.863 2°27.153 46.7 13.5 41 23.9
2004-08-23 08:54:21 51°13.057 2°27.396 43.1 13.5 37 23.5
2004-08-23 08:55:20 51°13.234 2°27.608 43.5 13.5 37 23.4
2004-08-23 08:56:20 51°13.415 2°27.824 43.5 13.5 38 22
2004-08-23 08:57:21 51°13.598 2°28.042 42.7 13.6 36 23.7
2004-08-23 08:58:21 51°13.778 2°28.259 43.1 13.6 37 23.4
2004-08-23 08:59:21 51°13.957 2°28.476 43.7 13.5 38 23.3
2004-08-23 09:00:21 51°14.136 2°28.691 42.8 13.5 37 24.8
2004-08-23 09:01:21 51°14.314 2°28.909 43.2 13.5 37 26
2004-08-23 09:02:21 51°14.495 2°29.12 40.7 13.5 34 26.7
2004-08-23 09:03:21 51°14.679 2°29.327 41.8 13.4 36 27
2004-08-23 09:04:21 51°14.861 2°29.534 42 13.4 36 27.2
2004-08-23 09:05:21 51°15.044 2°29.74 40.6 13.4 34 27.4
2004-08-23 09:06:21 51°15.228 2°29.944 41.9 13.4 36 27.4
2004-08-23 09:07:21 51°15.411 2°30.15 41.2 13.6 34 27.4
2004-08-23 09:08:25 51°15.608 2°30.366 40.8 13.5 34 27.6
2004-08-23 09:09:25 51°15.793 2°30.57 41.1 13.6 35 28
2004-08-23 09:10:29 51°15.991 2°30.792 41.8 13.6 36 28.3
2004-08-23 09:11:29 51°16.177 2°30.998 40.6 13.6 34 28
2004-08-23 09:12:29 51°16.363 2°31.206 41 13.6 34 28.2
2004-08-23 09:13:33 51°16.563 2°31.425 41.7 13.7 35 28.1
2004-08-23 09:14:36 51°16.759 2°31.643 41.7 13.6 35 27.5
2004-08-23 09:15:36 51°16.945 2°31.85 42 13.6 36 26.3
2004-08-23 09:16:41 51°17.146 2°32.074 41.9 13.5 36 26.3
2004-08-23 09:17:45 51°17.344 2°32.295 40.1 13.7 34 26.1
2004-08-23 09:18:50 51°17.548 2°32.514 41.2 13.6 35 25.7
2004-08-23 09:19:53 51°17.74 2°32.731 40.8 13.5 35 24.1
2004-08-23 09:20:52 51°17.922 2°32.93 40.9 13.5 35 22.1
2004-08-23 09:21:52 51°18.108 2°33.132 40.7 13.5 34 20.2
2004-08-23 09:22:50 51°18.286 2°33.326 42 13.5 35 18.9
2004-08-23 09:23:51 51°18.474 2°33.53 42.2 13.4 35 16.3
2004-08-23 09:24:49 51°18.653 2°33.721 41.2 13.4 34 14.6
2004-08-23 09:25:49 51°18.837 2°33.919 41.6 13.3 34 15.3
2004-08-23 09:26:51 51°19.028 2°34.121 41.1 13.3 34 14.9
2004-08-23 09:27:52 51°19.214 2°34.32 41.2 13.4 34 12.5
2004-08-23 09:28:49 51°19.39 2°34.506 41.8 13.2 33 15.2
2004-08-23 09:29:49 51°19.574 2°34.701 42.1 13.3 34 15.3
2004-08-23 09:30:52 51°19.74 2°34.952 54.9 13.1 48 15.1
2004-08-23 09:31:52 51°19.888 2°35.208 54.5 13.1 48 14.9
2004-08-23 09:32:49 51°20.03 2°35.449 52.9 13.2 45 16
2004-08-23 09:33:49 51°20.173 2°35.713 61 13.1 55 17.5
2004-08-23 09:34:52 51°20.285 2°36.028 69.4 13 64 18.5
2004-08-23 09:35:58 51°20.384 2°36.371 70.2 13 65 20
2004-08-23 09:36:58 51°20.475 2°36.683 70.4 12.9 65 20.2
2004-08-23 09:37:58 51°20.568 2°36.992 69.1 12.9 64 22.4
2004-08-23 09:38:57 51°20.654 2°37.299 74.6 12.9 73 22.3
2004-08-23 09:39:57 51°20.673 2°37.635 94.8 12.8 93 22.8
2004-08-23 09:41:02 51°20.66 2°38.004 96.5 12.8 95 23.4
2004-08-23 09:42:01 51°20.644 2°38.338 96.5 12.8 93 23.6
2004-08-23 09:43:01 51°20.628 2°38.677 97.7 12.8 96 22
2004-08-23 09:44:02 51°20.61 2°39.021 97.9 12.8 96 24.2
2004-08-23 09:45:02 51°20.593 2°39.36 97.6 12.8 96 24.5
2004-08-23 09:46:01 51°20.577 2°39.696 97.4 13 94 25.6
2004-08-23 09:47:01 51°20.563 2°40.04 98 12.9 96 26.3
2004-08-23 09:48:01 51°20.534 2°40.38 99.5 12.9 96 27
2004-08-23 09:49:01 51°20.509 2°40.721 99.2 12.9 97 27.2
2004-08-23 09:50:01 51°20.483 2°41.06 98.7 12.9 97 27.5
2004-08-23 09:51:01 51°20.459 2°41.397 100 12.7 97 19.8
2004-08-23 09:52:01 51°20.434 2°41.731 99.6 12.7 97 21
2004-08-23 09:53:02 51°20.409 2°42.069 99.6 12.6 98 17.6
2004-08-23 09:54:01 51°20.385 2°42.395 99 12.6 96 20.6
2004-08-23 09:55:01 51°20.359 2°42.73 98.7 12.8 97 23.7
2004-08-23 09:56:03 51°20.332 2°43.08 100 12.9 98 25.4
2004-08-23 09:57:03 51°20.306 2°43.421 98.9 12.9 96 26.1
2004-08-23 09:58:03 51°20.281 2°43.761 98.6 12.9 97 26.2
2004-08-23 09:59:02 51°20.256 2°44.095 98.9 12.9 97 25.9
2004-08-23 10:00:09 51°20.226 2°44.472 100.1 12.7 98 25.4
2004-08-23 10:01:09 51°20.196 2°44.806 99.4 12.6 98 24.1
2004-08-23 10:02:09 51°20.165 2°45.141 100 12.8 98 22.6
2004-08-23 10:03:16 51°20.135 2°45.517 98.5 12.8 96 20.8
2004-08-23 10:04:16 51°20.108 2°45.851 99.2 12.7 96 14.7
2004-08-23 10:05:15 51°20.081 2°46.176 100.2 12.5 100 14.3
2004-08-23 10:06:13 51°20.019 2°46.484 111.9 12.6 111 15
2004-08-23 10:07:16 51°19.935 2°46.815 112 12.9 113 18.3
2004-08-23 10:08:16 51°19.857 2°47.133 111.5 12.9 111 20.4
2004-08-23 10:09:21 51°19.772 2°47.479 111.4 12.9 112 21.4
2004-08-23 10:10:20 51°19.694 2°47.791 111.6 12.8 112 21.6
2004-08-23 10:11:20 51°19.614 2°48.105 110.9 12.8 112 21
2004-08-23 10:12:21 51°19.531 2°48.424 111.1 12.7 113 18.9
2004-08-23 10:13:22 51°19.452 2°48.746 111.1 12.8 112 16.8
2004-08-23 10:14:22 51°19.374 2°49.062 111 12.7 112 14.8
2004-08-23 10:15:21 51°19.299 2°49.372 111.5 12.8 110 13.3
2004-08-23 10:16:22 51°19.219 2°49.691 111.2 12.7 110 11.8
2004-08-23 10:17:21 51°19.138 2°49.992 117.5 12.8 121 10.7
2004-08-23 10:18:21 51°19.023 2°50.279 122.1 12.8 123 12.4
2004-08-23 10:19:21 51°18.908 2°50.57 120.7 13.1 122 13.9
2004-08-23 10:20:25 51°18.785 2°50.88 120.4 12.8 122 14
2004-08-23 10:21:29 51°18.644 2°51.169 133.2 13 137 13.5
2004-08-23 10:22:30 51°18.462 2°51.379 144.9 13.5 147 12.6
2004-08-23 10:23:29 51°18.273 2°51.556 147.8 13.6 150 11.4
2004-08-23 10:24:30 51°18.076 2°51.733 147.8 13.4 150 10.2
2004-08-23 10:25:34 51°17.871 2°51.923 146.8 13.4 149 9.4
2004-08-23 10:26:41 51°17.655 2°52.126 148 13.7 150 9.4
2004-08-23 10:27:37 51°17.476 2°52.301 145.7 13.6 147 9.6
2004-08-23 10:28:40 51°17.271 2°52.491 149.6 14 152 9.3
2004-08-23 10:29:43 51°17.047 2°52.601 169.2 13.5 172 8.8
2004-08-23 10:30:43 51°16.821 2°52.665 171.2 13.8 173 8.9
2004-08-23 10:31:44 51°16.593 2°52.749 162.2 13.8 165 10.7
2004-08-23 10:32:44 51°16.367 2°52.831 163.6 14 165 11.6
2004-08-23 10:33:44 51°16.15 2°52.943 159.5 13.5 164 11.6
2004-08-23 10:34:43 51°15.937 2°53.053 158.6 13.7 162 11.3
2004-08-23 10:35:49 51°15.704 2°53.194 153.5 13.4 156 10.7
2004-08-23 10:36:49 51°15.502 2°53.351 152.4 13.7 153 10.1
2004-08-23 10:37:54 51°15.301 2°53.563 145.1 13.6 147 9.2
2004-08-23 10:39:00 51°15.096 2°53.772 145.9 13.2 148 8.9
2004-08-23 10:40:09 51°14.89 2°54.014 141 13.4 144 8.4
2004-08-23 10:41:09 51°14.745 2°54.234 125.7 9.1 129 9.4
2004-08-23 10:42:10 51°14.62 2°54.413 132.8 11.3 134 9.3
2004-08-23 10:43:11 51°14.5 2°54.656 123.1 11.5 123 10
2004-08-23 10:44:10 51°14.415 2°54.92 118 11.4 118 10.2